SWA1711 KROC-KBWI
Flight info
| Callsign | SWA1711 |
|---|---|
| Flight time | 0h 49m |
| Altitude | 24000 |
| Route | BURST DDUBS IZZEE TRISH4 |
| Aircraft | B738/M-SADE2E3GIJ4RWZ/LB1D1 |
Departure
| Time | 2026-04-27 00:29 |
|---|---|
| Airport | Frederick Douglass Greater Rochester International Airport (KROC) |
Arrival
| Time | 2026-04-27 01:18 |
|---|---|
| Airport | Baltimore/Washington International Thurgood Marshall Airport (KBWI) |
| Time | Latitude | Longitude | Altitude | Speed | Heading |
|---|---|---|---|---|---|
| 2026-04-27 00:20 | 43.12634 | -77.66624 | 564 ft | 0 kts | 302° |
| 2026-04-27 00:21 | 43.12630 | -77.66614 | 565 ft | 2 kts | 302° |
| 2026-04-27 00:21 | 43.12621 | -77.66595 | 561 ft | 2 kts | 302° |
| 2026-04-27 00:22 | 43.12612 | -77.66576 | 566 ft | 2 kts | 296° |
| 2026-04-27 00:22 | 43.12607 | -77.66555 | 568 ft | 2 kts | 258° |
| 2026-04-27 00:22 | 43.12612 | -77.66539 | 567 ft | 1 kts | 221° |
| 2026-04-27 00:22 | 43.12615 | -77.66535 | 562 ft | 0 kts | 219° |
| 2026-04-27 00:23 | 43.12570 | -77.66513 | 556 ft | 16 kts | 142° |
| 2026-04-27 00:23 | 43.12455 | -77.66453 | 557 ft | 19 kts | 202° |
| 2026-04-27 00:24 | 43.12423 | -77.66616 | 560 ft | 18 kts | 268° |
| 2026-04-27 00:24 | 43.12418 | -77.66787 | 561 ft | 18 kts | 268° |
| 2026-04-27 00:24 | 43.12414 | -77.66952 | 560 ft | 17 kts | 268° |
| 2026-04-27 00:24 | 43.12407 | -77.67108 | 562 ft | 44 kts | 257° |
| 2026-04-27 00:25 | 43.12174 | -77.67357 | 568 ft | 43 kts | 208° |
| 2026-04-27 00:25 | 43.11923 | -77.67559 | 562 ft | 41 kts | 212° |
| 2026-04-27 00:25 | 43.11684 | -77.67764 | 560 ft | 40 kts | 212° |
| 2026-04-27 00:25 | 43.11453 | -77.67957 | 555 ft | 39 kts | 210° |
| 2026-04-27 00:26 | 43.11223 | -77.68141 | 550 ft | 38 kts | 210° |
| 2026-04-27 00:26 | 43.11013 | -77.68308 | 543 ft | 18 kts | 210° |
| 2026-04-27 00:26 | 43.10904 | -77.68395 | 541 ft | 18 kts | 210° |
| 2026-04-27 00:26 | 43.10810 | -77.68469 | 540 ft | 17 kts | 210° |
| 2026-04-27 00:27 | 43.10711 | -77.68556 | 538 ft | 17 kts | 214° |
| 2026-04-27 00:27 | 43.10666 | -77.68687 | 536 ft | 16 kts | 286° |
| 2026-04-27 00:27 | 43.10722 | -77.68740 | 536 ft | 3 kts | 2° |
| 2026-04-27 00:27 | 43.10740 | -77.68730 | 537 ft | 3 kts | 25° |
| 2026-04-27 00:28 | 43.10757 | -77.68718 | 537 ft | 3 kts | 28° |
| 2026-04-27 00:28 | 43.10773 | -77.68706 | 538 ft | 3 kts | 30° |
| 2026-04-27 00:28 | 43.10792 | -77.68689 | 538 ft | 10 kts | 33° |
| 2026-04-27 00:28 | 43.11100 | -77.68442 | 547 ft | 101 kts | 30° |
| 2026-04-27 00:29 | 43.11961 | -77.67709 | 629 ft | 184 kts | 31° |
| 2026-04-27 00:29 | 43.13206 | -77.66683 | 1116 ft | 232 kts | 31° |
| 2026-04-27 00:29 | 43.14734 | -77.65460 | 1821 ft | 271 kts | 25° |
| 2026-04-27 00:29 | 43.16429 | -77.64528 | 3494 ft | 259 kts | 32° |
| 2026-04-27 00:30 | 43.17611 | -77.62776 | 4781 ft | 251 kts | 66° |
| 2026-04-27 00:30 | 43.17838 | -77.60428 | 5820 ft | 256 kts | 100° |
| 2026-04-27 00:30 | 43.17056 | -77.58209 | 6799 ft | 265 kts | 123° |
| 2026-04-27 00:30 | 43.15812 | -77.56268 | 7577 ft | 280 kts | 137° |
| 2026-04-27 00:31 | 43.14715 | -77.55282 | 8113 ft | 289 kts | 152° |
| 2026-04-27 00:31 | 43.12748 | -77.54529 | 8943 ft | 301 kts | 175° |
| 2026-04-27 00:31 | 43.10642 | -77.54791 | 9788 ft | 309 kts | 196° |
| 2026-04-27 00:31 | 43.08568 | -77.55718 | 10494 ft | 322 kts | 203° |
| 2026-04-27 00:32 | 43.06397 | -77.56899 | 10722 ft | 350 kts | 205° |
| 2026-04-27 00:32 | 43.04063 | -77.58212 | 10997 ft | 374 kts | 204° |
| 2026-04-27 00:32 | 43.01626 | -77.59586 | 11645 ft | 383 kts | 205° |
| 2026-04-27 00:32 | 42.99155 | -77.60983 | 12509 ft | 386 kts | 205° |
| 2026-04-27 00:33 | 42.96650 | -77.62355 | 13392 ft | 389 kts | 205° |
| 2026-04-27 00:33 | 42.94112 | -77.63694 | 14214 ft | 394 kts | 204° |
| 2026-04-27 00:33 | 42.91533 | -77.65016 | 14965 ft | 398 kts | 204° |
| 2026-04-27 00:33 | 42.88918 | -77.66333 | 15736 ft | 401 kts | 204° |
| 2026-04-27 00:34 | 42.86286 | -77.67644 | 16495 ft | 405 kts | 204° |
| 2026-04-27 00:34 | 42.83660 | -77.68948 | 17205 ft | 409 kts | 204° |
| 2026-04-27 00:34 | 42.80976 | -77.70278 | 17940 ft | 412 kts | 204° |
| 2026-04-27 00:34 | 42.78268 | -77.71620 | 18649 ft | 416 kts | 204° |
| 2026-04-27 00:35 | 42.75540 | -77.72972 | 19270 ft | 419 kts | 204° |
| 2026-04-27 00:35 | 42.72788 | -77.74335 | 19897 ft | 422 kts | 204° |
| 2026-04-27 00:35 | 42.70019 | -77.75706 | 20519 ft | 425 kts | 204° |
| 2026-04-27 00:35 | 42.67231 | -77.77085 | 21143 ft | 428 kts | 204° |
| 2026-04-27 00:36 | 42.64419 | -77.78475 | 21737 ft | 431 kts | 204° |
| 2026-04-27 00:36 | 42.61590 | -77.79872 | 22319 ft | 435 kts | 204° |
| 2026-04-27 00:36 | 42.58739 | -77.81279 | 22891 ft | 438 kts | 204° |
| 2026-04-27 00:36 | 42.55867 | -77.82695 | 23451 ft | 441 kts | 204° |
| 2026-04-27 00:37 | 42.52905 | -77.83910 | 23932 ft | 449 kts | 196° |
| 2026-04-27 00:37 | 42.49770 | -77.84395 | 24199 ft | 458 kts | 184° |
| 2026-04-27 00:37 | 42.46542 | -77.84117 | 24232 ft | 471 kts | 176° |
| 2026-04-27 00:37 | 42.43254 | -77.83572 | 24244 ft | 481 kts | 175° |
| 2026-04-27 00:38 | 42.39912 | -77.83027 | 24237 ft | 484 kts | 177° |
| 2026-04-27 00:38 | 42.36571 | -77.82675 | 24228 ft | 480 kts | 180° |
| 2026-04-27 00:38 | 42.33245 | -77.82493 | 24231 ft | 477 kts | 181° |
| 2026-04-27 00:38 | 42.29934 | -77.82351 | 24236 ft | 476 kts | 181° |
| 2026-04-27 00:39 | 42.26621 | -77.82186 | 24232 ft | 477 kts | 181° |
| 2026-04-27 00:39 | 42.23309 | -77.81977 | 24226 ft | 477 kts | 180° |
| 2026-04-27 00:39 | 42.19992 | -77.81727 | 24226 ft | 478 kts | 180° |
| 2026-04-27 00:39 | 42.16669 | -77.81451 | 24218 ft | 478 kts | 179° |
| 2026-04-27 00:40 | 42.13347 | -77.81160 | 24231 ft | 479 kts | 179° |
| 2026-04-27 00:40 | 42.10021 | -77.80866 | 24226 ft | 479 kts | 179° |
| 2026-04-27 00:40 | 42.06691 | -77.80572 | 24223 ft | 480 kts | 179° |
| 2026-04-27 00:40 | 42.03359 | -77.80281 | 24219 ft | 480 kts | 179° |
| 2026-04-27 00:41 | 42.00022 | -77.79993 | 24223 ft | 480 kts | 179° |
| 2026-04-27 00:41 | 41.96689 | -77.79707 | 24228 ft | 480 kts | 179° |
| 2026-04-27 00:41 | 41.93404 | -77.79426 | 24229 ft | 480 kts | 179° |
| 2026-04-27 00:41 | 41.90072 | -77.79142 | 24229 ft | 480 kts | 179° |
| 2026-04-27 00:42 | 41.86747 | -77.78859 | 24227 ft | 480 kts | 179° |
| 2026-04-27 00:42 | 41.83418 | -77.78576 | 24228 ft | 480 kts | 179° |
| 2026-04-27 00:42 | 41.80081 | -77.78292 | 24227 ft | 479 kts | 179° |
| 2026-04-27 00:42 | 41.76756 | -77.78009 | 24225 ft | 479 kts | 179° |
| 2026-04-27 00:43 | 41.73430 | -77.77727 | 24227 ft | 480 kts | 179° |
| 2026-04-27 00:43 | 41.70095 | -77.77444 | 24226 ft | 479 kts | 179° |
| 2026-04-27 00:43 | 41.66775 | -77.77162 | 24219 ft | 478 kts | 179° |
| 2026-04-27 00:43 | 41.63457 | -77.76881 | 24218 ft | 478 kts | 179° |
| 2026-04-27 00:44 | 41.60139 | -77.76600 | 24215 ft | 477 kts | 179° |
| 2026-04-27 00:44 | 41.56825 | -77.76319 | 24214 ft | 477 kts | 179° |
| 2026-04-27 00:44 | 41.53513 | -77.76040 | 24217 ft | 478 kts | 179° |
| 2026-04-27 00:44 | 41.50192 | -77.75754 | 24213 ft | 478 kts | 178° |
| 2026-04-27 00:45 | 41.46880 | -77.75288 | 24214 ft | 480 kts | 174° |
| 2026-04-27 00:45 | 41.43595 | -77.74433 | 24212 ft | 483 kts | 168° |
| 2026-04-27 00:45 | 41.40370 | -77.73154 | 24210 ft | 484 kts | 162° |
| 2026-04-27 00:45 | 41.37213 | -77.71578 | 24219 ft | 485 kts | 160° |
| 2026-04-27 00:46 | 41.34068 | -77.69941 | 24206 ft | 485 kts | 160° |
| 2026-04-27 00:46 | 41.30913 | -77.68359 | 24209 ft | 485 kts | 161° |
| 2026-04-27 00:46 | 41.27723 | -77.66868 | 24194 ft | 485 kts | 163° |
| 2026-04-27 00:46 | 41.24517 | -77.65473 | 24200 ft | 485 kts | 164° |
| 2026-04-27 00:47 | 41.21302 | -77.64140 | 24208 ft | 484 kts | 164° |
| 2026-04-27 00:47 | 41.18078 | -77.62826 | 24197 ft | 484 kts | 164° |
| 2026-04-27 00:47 | 41.14860 | -77.61510 | 24199 ft | 484 kts | 164° |
| 2026-04-27 00:47 | 41.11645 | -77.60182 | 24213 ft | 484 kts | 164° |
| 2026-04-27 00:48 | 41.08473 | -77.58861 | 24199 ft | 484 kts | 164° |
| 2026-04-27 00:48 | 41.05223 | -77.57501 | 24215 ft | 484 kts | 164° |
| 2026-04-27 00:48 | 41.02010 | -77.56156 | 24214 ft | 484 kts | 164° |
| 2026-04-27 00:48 | 40.98844 | -77.54834 | 24213 ft | 484 kts | 164° |
| 2026-04-27 00:49 | 40.95634 | -77.53497 | 24207 ft | 484 kts | 163° |
| 2026-04-27 00:49 | 40.92458 | -77.52022 | 24210 ft | 485 kts | 159° |
| 2026-04-27 00:49 | 40.89395 | -77.50145 | 24217 ft | 485 kts | 153° |
| 2026-04-27 00:49 | 40.86474 | -77.47913 | 24219 ft | 486 kts | 148° |
| 2026-04-27 00:50 | 40.83630 | -77.45509 | 24222 ft | 486 kts | 147° |
| 2026-04-27 00:50 | 40.77917 | -77.40727 | 24206 ft | 486 kts | 149° |
| 2026-04-27 00:50 | 40.75023 | -77.38442 | 24209 ft | 485 kts | 150° |
| 2026-04-27 00:51 | 40.72101 | -77.36214 | 24214 ft | 485 kts | 150° |
| 2026-04-27 00:51 | 40.69165 | -77.34020 | 24216 ft | 485 kts | 151° |
| 2026-04-27 00:51 | 40.66224 | -77.31841 | 24217 ft | 485 kts | 151° |
| 2026-04-27 00:51 | 40.63282 | -77.29662 | 24206 ft | 485 kts | 151° |
| 2026-04-27 00:52 | 40.60350 | -77.27487 | 24213 ft | 483 kts | 151° |
| 2026-04-27 00:52 | 40.57440 | -77.25322 | 24206 ft | 478 kts | 151° |
| 2026-04-27 00:52 | 40.54549 | -77.23169 | 24212 ft | 478 kts | 150° |
| 2026-04-27 00:52 | 40.51654 | -77.21012 | 24209 ft | 479 kts | 150° |
| 2026-04-27 00:53 | 40.48762 | -77.18859 | 24109 ft | 479 kts | 151° |
| 2026-04-27 00:53 | 40.45860 | -77.16701 | 23466 ft | 476 kts | 150° |
| 2026-04-27 00:53 | 40.43000 | -77.14577 | 22810 ft | 470 kts | 150° |
| 2026-04-27 00:53 | 40.40168 | -77.12476 | 22127 ft | 464 kts | 150° |
| 2026-04-27 00:54 | 40.37372 | -77.10404 | 21453 ft | 459 kts | 150° |
| 2026-04-27 00:54 | 40.34646 | -77.08385 | 20810 ft | 454 kts | 150° |
| 2026-04-27 00:54 | 40.31865 | -77.06328 | 20139 ft | 451 kts | 150° |
| 2026-04-27 00:54 | 40.29153 | -77.04306 | 19496 ft | 447 kts | 148° |
| 2026-04-27 00:55 | 40.26707 | -77.01849 | 18848 ft | 442 kts | 134° |
| 2026-04-27 00:55 | 40.24612 | -76.98929 | 18149 ft | 439 kts | 129° |
| 2026-04-27 00:55 | 40.22612 | -76.95943 | 17461 ft | 435 kts | 129° |
| 2026-04-27 00:55 | 40.20613 | -76.93061 | 16813 ft | 431 kts | 131° |
| 2026-04-27 00:56 | 40.18497 | -76.90293 | 16029 ft | 431 kts | 134° |
| 2026-04-27 00:56 | 40.16317 | -76.87617 | 15338 ft | 428 kts | 135° |
| 2026-04-27 00:56 | 40.14148 | -76.84977 | 14712 ft | 424 kts | 135° |
| 2026-04-27 00:56 | 40.12019 | -76.82350 | 14065 ft | 419 kts | 134° |
| 2026-04-27 00:57 | 40.09926 | -76.79717 | 13351 ft | 416 kts | 134° |
| 2026-04-27 00:57 | 40.07865 | -76.77092 | 12686 ft | 412 kts | 133° |
| 2026-04-27 00:57 | 40.05828 | -76.74479 | 12043 ft | 407 kts | 133° |
| 2026-04-27 00:57 | 40.03823 | -76.71903 | 11421 ft | 403 kts | 133° |
| 2026-04-27 00:58 | 40.01838 | -76.69353 | 10960 ft | 395 kts | 133° |
| 2026-04-27 00:58 | 39.99942 | -76.66928 | 10792 ft | 370 kts | 132° |
| 2026-04-27 00:58 | 39.98162 | -76.64654 | 10636 ft | 346 kts | 132° |
| 2026-04-27 00:58 | 39.96492 | -76.62518 | 10489 ft | 326 kts | 132° |
| 2026-04-27 00:59 | 39.94914 | -76.60499 | 10352 ft | 309 kts | 132° |
| 2026-04-27 00:59 | 39.93411 | -76.58579 | 10239 ft | 300 kts | 131° |
| 2026-04-27 00:59 | 39.91925 | -76.56680 | 10129 ft | 299 kts | 131° |
| 2026-04-27 00:59 | 39.90384 | -76.54846 | 9990 ft | 303 kts | 143° |
| 2026-04-27 01:00 | 39.88456 | -76.53766 | 9910 ft | 302 kts | 161° |
| 2026-04-27 01:00 | 39.86442 | -76.53011 | 9798 ft | 301 kts | 162° |
| 2026-04-27 01:00 | 39.84443 | -76.52225 | 9694 ft | 300 kts | 160° |
| 2026-04-27 01:00 | 39.82466 | -76.51345 | 9586 ft | 301 kts | 159° |
| 2026-04-27 01:01 | 39.80492 | -76.50447 | 9495 ft | 300 kts | 159° |
| 2026-04-27 01:01 | 39.78518 | -76.49562 | 9372 ft | 300 kts | 159° |
| 2026-04-27 01:01 | 39.76549 | -76.48697 | 9283 ft | 298 kts | 160° |
| 2026-04-27 01:01 | 39.74612 | -76.47857 | 9181 ft | 297 kts | 160° |
| 2026-04-27 01:02 | 39.72656 | -76.47013 | 9078 ft | 296 kts | 160° |
| 2026-04-27 01:02 | 39.70706 | -76.46173 | 8952 ft | 295 kts | 160° |
| 2026-04-27 01:02 | 39.68758 | -76.45331 | 8794 ft | 296 kts | 159° |
| 2026-04-27 01:02 | 39.66798 | -76.44484 | 8645 ft | 297 kts | 159° |
| 2026-04-27 01:03 | 39.64841 | -76.43639 | 8484 ft | 295 kts | 159° |
| 2026-04-27 01:03 | 39.62914 | -76.42807 | 8310 ft | 290 kts | 159° |
| 2026-04-27 01:03 | 39.61015 | -76.41987 | 8161 ft | 285 kts | 159° |
| 2026-04-27 01:03 | 39.59139 | -76.41177 | 8017 ft | 284 kts | 159° |
| 2026-04-27 01:04 | 39.57264 | -76.40369 | 7866 ft | 284 kts | 159° |
| 2026-04-27 01:04 | 39.55392 | -76.39563 | 7717 ft | 283 kts | 159° |
| 2026-04-27 01:04 | 39.53525 | -76.38791 | 7555 ft | 282 kts | 164° |
| 2026-04-27 01:04 | 39.51579 | -76.38711 | 7390 ft | 284 kts | 194° |
| 2026-04-27 01:05 | 39.49880 | -76.39940 | 7261 ft | 280 kts | 226° |
| 2026-04-27 01:05 | 39.48767 | -76.41961 | 7132 ft | 275 kts | 246° |
| 2026-04-27 01:05 | 39.48022 | -76.44235 | 7000 ft | 274 kts | 251° |
| 2026-04-27 01:05 | 39.47322 | -76.46547 | 6844 ft | 277 kts | 250° |
| 2026-04-27 01:06 | 39.46584 | -76.48833 | 6697 ft | 280 kts | 249° |
| 2026-04-27 01:06 | 39.45815 | -76.51148 | 6533 ft | 280 kts | 248° |
| 2026-04-27 01:06 | 39.45046 | -76.53446 | 6370 ft | 277 kts | 248° |
| 2026-04-27 01:06 | 39.44283 | -76.55726 | 6204 ft | 275 kts | 248° |
| 2026-04-27 01:07 | 39.43527 | -76.57990 | 6064 ft | 274 kts | 248° |
| 2026-04-27 01:07 | 39.42774 | -76.60249 | 5917 ft | 273 kts | 248° |
| 2026-04-27 01:07 | 39.42024 | -76.62499 | 5770 ft | 272 kts | 248° |
| 2026-04-27 01:07 | 39.41275 | -76.64749 | 5625 ft | 271 kts | 248° |
| 2026-04-27 01:08 | 39.40529 | -76.66986 | 5476 ft | 271 kts | 248° |
| 2026-04-27 01:08 | 39.39784 | -76.69220 | 5332 ft | 271 kts | 248° |
| 2026-04-27 01:08 | 39.39036 | -76.71459 | 5182 ft | 271 kts | 248° |
| 2026-04-27 01:08 | 39.38226 | -76.73651 | 5037 ft | 270 kts | 242° |
| 2026-04-27 01:09 | 39.37304 | -76.75757 | 4891 ft | 267 kts | 240° |
| 2026-04-27 01:09 | 39.36389 | -76.77814 | 4731 ft | 261 kts | 240° |
| 2026-04-27 01:09 | 39.35506 | -76.79822 | 4587 ft | 254 kts | 241° |
| 2026-04-27 01:09 | 39.34648 | -76.81785 | 4448 ft | 247 kts | 240° |
| 2026-04-27 01:10 | 39.33504 | -76.83375 | 4316 ft | 239 kts | 210° |
| 2026-04-27 01:10 | 39.32023 | -76.84238 | 4215 ft | 231 kts | 197° |
| 2026-04-27 01:10 | 39.30499 | -76.84890 | 4099 ft | 233 kts | 195° |
| 2026-04-27 01:10 | 39.29020 | -76.85752 | 3995 ft | 235 kts | 223° |
| 2026-04-27 01:11 | 39.28100 | -76.87455 | 4024 ft | 232 kts | 240° |
| 2026-04-27 01:11 | 39.27285 | -76.89224 | 4011 ft | 233 kts | 238° |
| 2026-04-27 01:11 | 39.26391 | -76.90983 | 4005 ft | 236 kts | 236° |
| 2026-04-27 01:11 | 39.25539 | -76.92787 | 4004 ft | 236 kts | 251° |
| 2026-04-27 01:12 | 39.25413 | -76.94840 | 4031 ft | 229 kts | 279° |
| 2026-04-27 01:12 | 39.25626 | -76.96905 | 3774 ft | 240 kts | 276° |
| 2026-04-27 01:12 | 39.25324 | -76.99053 | 3290 ft | 250 kts | 243° |
| 2026-04-27 01:12 | 39.24200 | -77.00726 | 2833 ft | 248 kts | 211° |
| 2026-04-27 01:13 | 39.22597 | -77.01426 | 2374 ft | 243 kts | 180° |
| 2026-04-27 01:13 | 39.20944 | -77.01194 | 2046 ft | 234 kts | 158° |
| 2026-04-27 01:13 | 39.19688 | -77.00095 | 1997 ft | 211 kts | 124° |
| 2026-04-27 01:13 | 39.19230 | -76.98391 | 2025 ft | 199 kts | 94° |
| 2026-04-27 01:14 | 39.19139 | -76.96599 | 2023 ft | 202 kts | 92° |
| 2026-04-27 01:14 | 39.19013 | -76.94777 | 2019 ft | 206 kts | 94° |
| 2026-04-27 01:14 | 39.18879 | -76.92937 | 2034 ft | 205 kts | 94° |
| 2026-04-27 01:14 | 39.18765 | -76.91121 | 2034 ft | 203 kts | 93° |
| 2026-04-27 01:15 | 39.18657 | -76.89302 | 2037 ft | 205 kts | 93° |
| 2026-04-27 01:15 | 39.18551 | -76.87478 | 2017 ft | 203 kts | 93° |
| 2026-04-27 01:15 | 39.18444 | -76.85661 | 2035 ft | 205 kts | 92° |
| 2026-04-27 01:15 | 39.18336 | -76.83826 | 2026 ft | 204 kts | 93° |
| 2026-04-27 01:16 | 39.18229 | -76.82002 | 2019 ft | 204 kts | 93° |
| 2026-04-27 01:16 | 39.18123 | -76.80179 | 1934 ft | 206 kts | 93° |
| 2026-04-27 01:16 | 39.18017 | -76.78360 | 1637 ft | 198 kts | 93° |
| 2026-04-27 01:16 | 39.17918 | -76.76653 | 1383 ft | 184 kts | 93° |
| 2026-04-27 01:17 | 39.17825 | -76.75062 | 1150 ft | 175 kts | 93° |
| 2026-04-27 01:17 | 39.17737 | -76.73518 | 920 ft | 175 kts | 94° |
| 2026-04-27 01:17 | 39.17645 | -76.71925 | 692 ft | 177 kts | 95° |
| 2026-04-27 01:17 | 39.17561 | -76.70351 | 430 ft | 180 kts | 92° |
| 2026-04-27 01:18 | 39.17473 | -76.68740 | 204 ft | 180 kts | 94° |
| 2026-04-27 01:18 | 39.17391 | -76.67200 | 150 ft | 161 kts | 94° |
| 2026-04-27 01:18 | 39.17322 | -76.66168 | 141 ft | 78 kts | 95° |
| 2026-04-27 01:18 | 39.17385 | -76.65898 | 146 ft | 26 kts | 6° |
| 2026-04-27 01:19 | 39.17442 | -76.65993 | 144 ft | 8 kts | 275° |
| 2026-04-27 01:19 | 39.17447 | -76.66063 | 144 ft | 8 kts | 275° |
| 2026-04-27 01:19 | 39.17453 | -76.66130 | 144 ft | 8 kts | 276° |
| 2026-04-27 01:19 | 39.17458 | -76.66196 | 144 ft | 7 kts | 276° |
| 2026-04-27 01:20 | 39.17468 | -76.66266 | 143 ft | 9 kts | 291° |
| 2026-04-27 01:20 | 39.17507 | -76.66344 | 143 ft | 12 kts | 306° |
| 2026-04-27 01:20 | 39.17555 | -76.66432 | 145 ft | 12 kts | 305° |
| 2026-04-27 01:20 | 39.17612 | -76.66470 | 147 ft | 8 kts | 15° |
| 2026-04-27 01:21 | 39.17663 | -76.66433 | 148 ft | 9 kts | 26° |
| 2026-04-27 01:21 | 39.17714 | -76.66439 | 149 ft | 7 kts | 325° |
| 2026-04-27 01:21 | 39.17732 | -76.66461 | 150 ft | 0 kts | 328° |
| 2026-04-27 01:21 | 39.17754 | -76.66477 | 151 ft | 19 kts | 334° |
| 2026-04-27 01:22 | 39.17825 | -76.66501 | 153 ft | 0 kts | 355° |
| 2026-04-27 01:22 | 39.17827 | -76.66500 | 153 ft | 0 kts | 9° |
| 2026-04-27 01:22 | 39.17843 | -76.66490 | 153 ft | 0 kts | 28° |
| 2026-04-27 01:22 | 39.17852 | -76.66482 | 153 ft | 0 kts | 33° |